Time;durP1;ratioP1;P1;durP2;ratioP2;P2;SDS_P1;SDS_P2;PMS_P1;PMS_P2;Temp;Humidity;BMP_temperature;BMP_pressure;BME280_temperature;BME280_humidity;BME280_pressure;Samples;Min_cycle;Max_cycle;Signal;HPM_P1;HPM_P2
2020/12/09 00:00:57;;;;;;;36.13;24.37;;;;;;;;;;5015109;28;20128;-83
2020/12/09 00:03:23;;;;;;;35.77;25.67;;;;;;;;;;5050377;28;20034;-83
2020/12/09 00:05:49;;;;;;;37.20;25.47;;;;;;;;;;5022068;28;20036;-84
2020/12/09 00:08:15;;;;;;;36.10;25.93;;;;;;;;;;5055168;28;20032;-83
2020/12/09 00:10:41;;;;;;;48.33;25.57;;;;;;;;;;5038084;28;20032;-84
2020/12/09 00:13:07;;;;;;;32.20;23.07;;;;;;;;;;5021353;28;20056;-83
2020/12/09 00:15:33;;;;;;;28.40;21.30;;;;;;;;;;5017012;28;20495;-82
2020/12/09 00:17:59;;;;;;;31.73;22.23;;;;;;;;;;5015050;28;20036;-83
2020/12/09 00:20:25;;;;;;;32.73;22.50;;;;;;;;;;5018744;28;20041;-83
2020/12/09 00:22:51;;;;;;;28.93;20.67;;;;;;;;;;5039702;28;20036;-84
2020/12/09 00:25:17;;;;;;;31.23;23.37;;;;;;;;;;5035830;28;20034;-83
2020/12/09 00:27:43;;;;;;;35.23;24.13;;;;;;;;;;5023835;28;20032;-84
2020/12/09 00:30:10;;;;;;;32.03;22.30;;;;;;;;;;5036027;28;20089;-83
2020/12/09 00:32:36;;;;;;;36.17;23.63;;;;;;;;;;5031738;28;20050;-83
2020/12/09 00:35:05;;;;;;;36.43;23.70;;;;;;;;;;5015645;28;20053;-83
2020/12/09 00:37:33;;;;;;;35.23;24.17;;;;;;;;;;5051166;28;20041;-83
2020/12/09 00:39:59;;;;;;;31.33;21.27;;;;;;;;;;5027162;28;20052;-82
2020/12/09 00:42:25;;;;;;;30.77;22.33;;;;;;;;;;5025011;28;20128;-83
2020/12/09 00:47:54;;;;;;;31.97;20.30;;;;;;;;;;5175288;22;20068;-82
2020/12/09 00:52:47;;;;;;;30.33;21.73;;;;;;;;;;5049006;28;20033;-83
2020/12/09 00:55:13;;;;;;;29.07;20.57;;;;;;;;;;5033299;28;20022;-83
2020/12/09 00:57:39;;;;;;;31.07;22.47;;;;;;;;;;5051680;28;20026;-82
2020/12/09 01:00:06;;;;;;;31.00;22.10;;;;;;;;;;5036727;28;20009;-82
2020/12/09 01:02:32;;;;;;;31.60;22.23;;;;;;;;;;5034035;28;20033;-83
2020/12/09 01:04:58;;;;;;;33.67;23.27;;;;;;;;;;5032726;28;20060;-83
2020/12/09 01:07:24;;;;;;;33.40;24.97;;;;;;;;;;5036769;28;20010;-83
2020/12/09 01:09:50;;;;;;;32.93;24.03;;;;;;;;;;5036725;28;20033;-82
2020/12/09 01:12:16;;;;;;;39.23;24.93;;;;;;;;;;5035736;28;20032;-82
2020/12/09 01:14:42;;;;;;;36.33;24.13;;;;;;;;;;5038572;28;20022;-83
2020/12/09 01:17:09;;;;;;;34.70;23.83;;;;;;;;;;5056681;28;20034;-84
2020/12/09 01:19:35;;;;;;;34.93;22.40;;;;;;;;;;5037600;28;20093;-83
2020/12/09 01:22:05;;;;;;;35.73;23.30;;;;;;;;;;5036557;28;20052;-85
2020/12/09 01:24:31;;;;;;;30.10;22.40;;;;;;;;;;5033481;28;20026;-83
2020/12/09 01:26:57;;;;;;;31.43;22.07;;;;;;;;;;5026835;28;20132;-83
2020/12/09 01:29:23;;;;;;;32.37;20.97;;;;;;;;;;5023474;28;20052;-84
2020/12/09 01:31:50;;;;;;;27.80;20.13;;;;;;;;;;5023115;28;20029;-83
2020/12/09 01:34:16;;;;;;;26.73;20.23;;;;;;;;;;5041258;28;20029;-83
2020/12/09 01:36:42;;;;;;;27.37;19.87;;;;;;;;;;5041003;28;20480;-83
2020/12/09 01:39:08;;;;;;;28.20;19.90;;;;;;;;;;5023283;28;20055;-83
2020/12/09 01:41:34;;;;;;;27.50;18.83;;;;;;;;;;5022870;28;20053;-83
2020/12/09 01:44:00;;;;;;;27.20;19.33;;;;;;;;;;5041021;28;20052;-83
2020/12/09 01:46:28;;;;;;;30.00;19.90;;;;;;;;;;5023193;28;20064;-83
2020/12/09 01:48:55;;;;;;;30.17;20.07;;;;;;;;;;5044685;28;20088;-83
2020/12/09 01:51:23;;;;;;;30.27;20.07;;;;;;;;;;5046568;28;20029;-84
2020/12/09 01:53:50;;;;;;;25.80;19.50;;;;;;;;;;5046888;28;20032;-83
2020/12/09 01:56:16;;;;;;;28.63;18.37;;;;;;;;;;5031432;28;20037;-83
2020/12/09 01:58:42;;;;;;;34.10;19.57;;;;;;;;;;5027847;28;20029;-83
2020/12/09 02:01:08;;;;;;;33.10;21.83;;;;;;;;;;5045526;28;20045;-83
2020/12/09 02:03:34;;;;;;;28.17;19.17;;;;;;;;;;5046015;28;20026;-83
2020/12/09 02:06:00;;;;;;;29.37;20.47;;;;;;;;;;5047882;28;20081;-83
2020/12/09 02:08:26;;;;;;;29.20;20.27;;;;;;;;;;5029789;28;20029;-83
2020/12/09 02:11:03;;;;;;;29.37;20.37;;;;;;;;;;5031367;28;20037;-83
2020/12/09 02:13:29;;;;;;;26.43;17.40;;;;;;;;;;5032031;28;20424;-83
2020/12/09 02:15:55;;;;;;;27.60;20.10;;;;;;;;;;5034541;28;20029;-83
2020/12/09 02:18:22;;;;;;;26.27;17.27;;;;;;;;;;5034844;28;20127;-83
2020/12/09 02:20:48;;;;;;;28.87;19.83;;;;;;;;;;5055577;28;20052;-84
2020/12/09 02:23:14;;;;;;;27.53;19.30;;;;;;;;;;5038595;28;20029;-83
2020/12/09 02:25:40;;;;;;;32.43;19.77;;;;;;;;;;5054142;28;20025;-84
2020/12/09 02:28:06;;;;;;;26.27;18.63;;;;;;;;;;5040668;28;20021;-84
2020/12/09 02:30:32;;;;;;;24.77;17.53;;;;;;;;;;5040473;28;20030;-83
2020/12/09 02:32:58;;;;;;;26.57;19.33;;;;;;;;;;5037717;28;20025;-84
2020/12/09 02:35:24;;;;;;;33.70;19.40;;;;;;;;;;5035046;28;20048;-83
2020/12/09 02:37:53;;;;;;;28.00;19.03;;;;;;;;;;5028403;28;20025;-83
2020/12/09 02:40:20;;;;;;;26.63;18.97;;;;;;;;;;5045442;28;20127;-82
2020/12/09 02:42:46;;;;;;;27.37;20.03;;;;;;;;;;5030340;28;20381;-83
2020/12/09 02:45:12;;;;;;;32.40;21.57;;;;;;;;;;5029218;28;20022;-83
2020/12/09 02:47:38;;;;;;;31.07;22.83;;;;;;;;;;5047667;28;20631;-83
2020/12/09 02:50:04;;;;;;;31.33;22.27;;;;;;;;;;5031897;28;20121;-83
2020/12/09 02:52:30;;;;;;;35.37;22.80;;;;;;;;;;5037059;28;20022;-84
2020/12/09 02:54:56;;;;;;;33.60;22.37;;;;;;;;;;5057032;28;20025;-83
2020/12/09 02:57:23;;;;;;;33.60;23.33;;;;;;;;;;5035787;28;20037;-83
2020/12/09 02:59:49;;;;;;;37.50;21.43;;;;;;;;;;5032438;28;20029;-83
2020/12/09 03:02:15;;;;;;;29.97;20.40;;;;;;;;;;5037040;28;20033;-84
2020/12/09 03:04:41;;;;;;;29.70;20.23;;;;;;;;;;5038034;28;20041;-84
2020/12/09 03:07:07;;;;;;;30.80;21.77;;;;;;;;;;5039384;28;20026;-85
2020/12/09 03:09:33;;;;;;;29.27;20.83;;;;;;;;;;5057096;28;20025;-84
2020/12/09 03:11:59;;;;;;;31.70;21.80;;;;;;;;;;5038748;28;20040;-83
2020/12/09 03:14:25;;;;;;;30.27;21.90;;;;;;;;;;5036983;28;20029;-83
2020/12/09 03:16:51;;;;;;;34.90;21.33;;;;;;;;;;5057376;28;20030;-84
2020/12/09 03:19:17;;;;;;;30.13;20.27;;;;;;;;;;5059604;28;20032;-83
2020/12/09 03:21:43;;;;;;;30.03;20.30;;;;;;;;;;5043242;28;20037;-84
2020/12/09 03:24:13;;;;;;;29.00;20.33;;;;;;;;;;5056231;28;20057;-84
2020/12/09 03:26:39;;;;;;;29.30;20.07;;;;;;;;;;5039832;28;20010;-85
2020/12/09 03:29:05;;;;;;;31.83;22.30;;;;;;;;;;5054669;28;20033;-83
2020/12/09 03:31:31;;;;;;;30.83;20.37;;;;;;;;;;5012827;28;20052;-84
2020/12/09 03:33:58;;;;;;;26.10;19.17;;;;;;;;;;5032296;28;20053;-85
2020/12/09 03:36:24;;;;;;;30.63;21.13;;;;;;;;;;5052690;28;20029;-84
2020/12/09 03:38:50;;;;;;;34.93;22.53;;;;;;;;;;5017277;28;20091;-83
2020/12/09 03:41:16;;;;;;;34.17;23.80;;;;;;;;;;5028152;28;20037;-83
2020/12/09 03:43:42;;;;;;;35.30;26.93;;;;;;;;;;5027367;28;20028;-84
2020/12/09 03:46:08;;;;;;;37.50;27.47;;;;;;;;;;5028242;28;20087;-83
2020/12/09 03:48:34;;;;;;;37.43;24.70;;;;;;;;;;5028583;28;20053;-85
2020/12/09 03:51:00;;;;;;;39.70;25.93;;;;;;;;;;5029918;28;20465;-84
2020/12/09 03:53:27;;;;;;;37.47;25.83;;;;;;;;;;5027878;28;20026;-84
2020/12/09 03:55:53;;;;;;;38.83;24.67;;;;;;;;;;5027913;28;20037;-84
2020/12/09 03:58:19;;;;;;;34.90;23.57;;;;;;;;;;5028568;28;20045;-84
2020/12/09 04:00:45;;;;;;;33.97;23.50;;;;;;;;;;5046507;28;20101;-84
2020/12/09 04:03:11;;;;;;;38.97;24.23;;;;;;;;;;5029750;28;20032;-83
2020/12/09 04:05:37;;;;;;;34.70;22.67;;;;;;;;;;5030927;28;20108;-84
2020/12/09 04:08:03;;;;;;;38.23;24.30;;;;;;;;;;5031713;28;20033;-84
2020/12/09 04:10:29;;;;;;;40.53;24.27;;;;;;;;;;5051418;28;20064;-84
2020/12/09 04:12:56;;;;;;;42.70;25.60;;;;;;;;;;5037570;28;20022;-84
2020/12/09 04:15:22;;;;;;;77.30;26.83;;;;;;;;;;5035191;28;20044;-85
2020/12/09 04:17:48;;;;;;;119.93;24.53;;;;;;;;;;5054247;28;20025;-83
2020/12/09 04:20:14;;;;;;;160.40;21.73;;;;;;;;;;5050699;28;20036;-84
2020/12/09 04:22:40;;;;;;;264.03;23.70;;;;;;;;;;5032148;28;20090;-84
2020/12/09 04:25:06;;;;;;;270.60;22.33;;;;;;;;;;5050783;28;20026;-82
2020/12/09 04:27:32;;;;;;;284.27;22.20;;;;;;;;;;5033301;28;20038;-84
2020/12/09 04:29:59;;;;;;;296.70;22.07;;;;;;;;;;5053570;28;20030;-84
2020/12/09 04:32:25;;;;;;;196.60;20.33;;;;;;;;;;5038430;28;20112;-85
2020/12/09 04:34:51;;;;;;;298.53;23.53;;;;;;;;;;5037333;28;20369;-84
2020/12/09 04:37:20;;;;;;;179.17;20.90;;;;;;;;;;5054007;28;20032;-85
2020/12/09 04:39:46;;;;;;;154.37;20.73;;;;;;;;;;5038788;28;20096;-84
2020/12/09 04:42:19;;;;;;;132.33;18.70;;;;;;;;;;5038176;28;20041;-84
2020/12/09 04:44:46;;;;;;;152.70;20.57;;;;;;;;;;5037673;28;20029;-85
2020/12/09 04:47:17;;;;;;;85.93;16.73;;;;;;;;;;5038759;28;20052;-84
2020/12/09 04:49:46;;;;;;;129.07;16.20;;;;;;;;;;5036957;28;20025;-85
2020/12/09 04:52:12;;;;;;;195.60;19.73;;;;;;;;;;5037358;28;20021;-83
2020/12/09 04:54:38;;;;;;;173.87;21.83;;;;;;;;;;5054971;28;20064;-86
2020/12/09 04:57:12;;;;;;;157.33;19.53;;;;;;;;;;5053525;28;20045;-85
2020/12/09 04:59:42;;;;;;;187.73;20.93;;;;;;;;;;5049814;28;20077;-84
2020/12/09 05:02:10;;;;;;;153.20;18.50;;;;;;;;;;5050034;28;20033;-85
2020/12/09 05:04:37;;;;;;;162.23;21.37;;;;;;;;;;5032121;28;20021;-85
2020/12/09 05:07:11;;;;;;;282.20;24.47;;;;;;;;;;5033859;28;20396;-83
2020/12/09 05:09:42;;;;;;;235.57;22.60;;;;;;;;;;5036110;28;20048;-85
2020/12/09 05:12:10;;;;;;;263.43;21.50;;;;;;;;;;5034687;28;20117;-84
2020/12/09 05:14:38;;;;;;;166.33;19.27;;;;;;;;;;5037225;28;20033;-85
2020/12/09 05:17:05;;;;;;;130.70;20.17;;;;;;;;;;5053559;28;20017;-85
2020/12/09 05:19:31;;;;;;;163.60;19.83;;;;;;;;;;5052745;28;20029;-85
2020/12/09 05:21:59;;;;;;;318.63;25.07;;;;;;;;;;5035344;28;20024;-85
2020/12/09 05:24:26;;;;;;;125.40;18.70;;;;;;;;;;5054346;28;20018;-86
2020/12/09 05:26:52;;;;;;;139.67;18.13;;;;;;;;;;5039081;28;20024;-85
2020/12/09 05:29:19;;;;;;;253.03;24.20;;;;;;;;;;5054302;28;20033;-85
2020/12/09 05:31:46;;;;;;;173.33;20.47;;;;;;;;;;5038384;28;20047;-85
2020/12/09 05:34:26;;;;;;;161.00;19.80;;;;;;;;;;5053075;28;20071;-85
2020/12/09 05:36:54;;;;;;;199.20;21.30;;;;;;;;;;5054558;28;20022;-85
2020/12/09 05:39:20;;;;;;;131.77;19.77;;;;;;;;;;5037762;28;20034;-85
2020/12/09 05:41:46;;;;;;;83.60;16.77;;;;;;;;;;5054246;28;20036;-86
2020/12/09 05:44:12;;;;;;;77.73;19.30;;;;;;;;;;5035163;28;20025;-86
2020/12/09 05:46:54;;;;;;;77.93;17.03;;;;;;;;;;5051931;28;20029;-84
2020/12/09 05:49:20;;;;;;;125.93;20.23;;;;;;;;;;5052473;28;20057;-81
2020/12/09 05:52:03;;;;;;;65.37;19.87;;;;;;;;;;5054089;28;20021;-85
2020/12/09 05:54:29;;;;;;;100.77;20.40;;;;;;;;;;5038792;28;20025;-85
2020/12/09 05:56:56;;;;;;;49.50;16.23;;;;;;;;;;5038072;28;20014;-85
2020/12/09 05:59:35;;;;;;;77.83;16.30;;;;;;;;;;5037828;28;20038;-86
2020/12/09 06:02:20;;;;;;;104.40;16.93;;;;;;;;;;5033244;28;20084;-85
2020/12/09 06:04:46;;;;;;;;;;;;;;;;;;5050472;28;20018;-85
2020/12/09 06:07:13;;;;;;;109.60;19.33;;;;;;;;;;5033528;28;19952;-83
2020/12/09 06:09:39;;;;;;;103.23;16.13;;;;;;;;;;5032176;28;20424;-85
2020/12/09 06:12:05;;;;;;;92.13;17.23;;;;;;;;;;5050060;28;20025;-84
2020/12/09 06:14:32;;;;;;;70.90;15.47;;;;;;;;;;5033936;28;20039;-85
2020/12/09 06:16:58;;;;;;;74.73;14.33;;;;;;;;;;5033057;28;20052;-86
2020/12/09 06:19:24;;;;;;;29.90;10.90;;;;;;;;;;5032491;28;20063;-87
2020/12/09 06:21:57;;;;;;;29.67;8.83;;;;;;;;;;5032424;28;20040;-85
2020/12/09 06:24:24;;;;;;;100.83;13.47;;;;;;;;;;5032186;28;20021;-86
2020/12/09 06:26:53;;;;;;;96.60;15.33;;;;;;;;;;5033807;28;20049;-86
2020/12/09 06:29:23;;;;;;;17.67;5.27;;;;;;;;;;5050040;28;20037;-87
2020/12/09 06:32:04;;;;;;;11.07;5.33;;;;;;;;;;5035190;28;20029;-86
2020/12/09 06:34:30;;;;;;;98.47;15.00;;;;;;;;;;5038751;28;20116;-85
2020/12/09 06:37:10;;;;;;;100.97;14.73;;;;;;;;;;5054239;28;20022;-86
2020/12/09 06:39:36;;;;;;;109.33;15.33;;;;;;;;;;5038994;28;20034;-85
2020/12/09 06:42:10;;;;;;;147.93;16.73;;;;;;;;;;5040082;28;20056;-85
2020/12/09 06:44:47;;;;;;;96.47;15.45;;;;;;;;;;5039004;28;20025;-85
2020/12/09 06:47:13;;;;;;;83.67;11.87;;;;;;;;;;5054186;28;20052;-86
2020/12/09 06:49:40;;;;;;;74.83;12.70;;;;;;;;;;5054137;28;20037;-86
2020/12/09 06:52:09;;;;;;;115.60;12.87;;;;;;;;;;5036255;28;20052;-86
2020/12/09 06:54:43;;;;;;;113.87;15.53;;;;;;;;;;5034693;28;20034;-84
2020/12/09 06:57:16;;;;;;;117.77;15.83;;;;;;;;;;5031770;28;20030;-84
2020/12/09 06:59:46;;;;;;;66.60;14.47;;;;;;;;;;5049597;28;20037;-84
2020/12/09 07:02:24;;;;;;;113.83;13.37;;;;;;;;;;5053692;28;20045;-85
2020/12/09 07:04:56;;;;;;;131.00;14.57;;;;;;;;;;5022352;28;20037;-85
2020/12/09 07:07:29;;;;;;;132.00;17.50;;;;;;;;;;5038278;28;20021;-84
2020/12/09 07:09:55;;;;;;;149.10;16.77;;;;;;;;;;5052733;28;20489;-84
2020/12/09 07:12:21;;;;;;;180.47;18.63;;;;;;;;;;5050805;28;20030;-85
2020/12/09 07:14:51;;;;;;;137.00;19.90;;;;;;;;;;5032313;28;20034;-85
2020/12/09 07:17:18;;;;;;;194.17;18.97;;;;;;;;;;5051177;28;20052;-84
2020/12/09 07:19:44;;;;;;;113.73;18.43;;;;;;;;;;5034500;28;20465;-86
2020/12/09 07:22:10;;;;;;;127.43;16.47;;;;;;;;;;5035773;28;20030;-86
2020/12/09 07:24:37;;;;;;;72.30;13.30;;;;;;;;;;5052036;28;20516;-85
2020/12/09 07:27:03;;;;;;;108.83;18.03;;;;;;;;;;5035356;28;20040;-85
2020/12/09 07:29:29;;;;;;;65.27;15.30;;;;;;;;;;5035766;28;20088;-85
2020/12/09 07:31:59;;;;;;;220.03;24.53;;;;;;;;;;5053999;28;20079;-84
2020/12/09 07:34:25;;;;;;;125.47;19.10;;;;;;;;;;5053567;28;20029;-86
2020/12/09 07:36:53;;;;;;;92.40;15.57;;;;;;;;;;5037780;28;20029;-86
2020/12/09 07:39:29;;;;;;;97.07;16.37;;;;;;;;;;5038588;28;20075;-85
2020/12/09 07:42:00;;;;;;;108.80;17.33;;;;;;;;;;5037938;28;20036;-86
2020/12/09 07:44:26;;;;;;;107.90;18.80;;;;;;;;;;5037178;28;20021;-85
2020/12/09 07:46:56;;;;;;;98.07;17.63;;;;;;;;;;5037227;28;20025;-86
2020/12/09 07:49:23;;;;;;;94.63;17.93;;;;;;;;;;5037465;28;20033;-86
2020/12/09 07:51:51;;;;;;;111.70;19.60;;;;;;;;;;5036492;28;20067;-85
2020/12/09 07:54:18;;;;;;;75.33;19.53;;;;;;;;;;5035238;28;20029;-86
2020/12/09 07:56:44;;;;;;;102.33;22.43;;;;;;;;;;5052932;28;20029;-86
2020/12/09 07:59:11;;;;;;;117.77;22.30;;;;;;;;;;5019372;28;20037;-86
2020/12/09 08:01:38;;;;;;;157.33;26.53;;;;;;;;;;5052944;28;20079;-86
2020/12/09 08:04:04;;;;;;;102.93;21.83;;;;;;;;;;5036581;28;20025;-86
2020/12/09 08:06:30;;;;;;;61.47;22.03;;;;;;;;;;5054530;28;20087;-86
2020/12/09 08:08:56;;;;;;;86.70;23.47;;;;;;;;;;5038619;28;20017;-85
2020/12/09 08:11:22;;;;;;;94.80;24.83;;;;;;;;;;5054460;28;20061;-84
2020/12/09 08:13:48;;;;;;;108.00;22.80;;;;;;;;;;5053673;28;20028;-84
2020/12/09 08:16:17;;;;;;;119.27;25.97;;;;;;;;;;5058557;28;20021;-86
2020/12/09 08:18:43;;;;;;;82.97;26.13;;;;;;;;;;5039088;28;20022;-85
2020/12/09 08:21:11;;;;;;;104.33;28.73;;;;;;;;;;5035004;28;20093;-85
2020/12/09 08:23:38;;;;;;;140.77;30.83;;;;;;;;;;5033104;28;20026;-83
2020/12/09 08:26:04;;;;;;;64.40;28.40;;;;;;;;;;5050456;28;20056;-87
2020/12/09 08:28:33;;;;;;;94.10;25.50;;;;;;;;;;5050286;28;20037;-85
2020/12/09 08:30:59;;;;;;;47.93;16.43;;;;;;;;;;5033249;28;20053;-85
2020/12/09 08:33:29;;;;;;;76.87;26.00;;;;;;;;;;5034635;28;20029;-87
2020/12/09 08:36:24;;;;;;;67.37;23.87;;;;;;;;;;5032957;28;20026;-84
2020/12/09 08:38:50;;;;;;;;;;;;;;;;;;5018012;28;20037;-86
2020/12/09 08:41:27;;;;;;;56.57;23.47;;;;;;;;;;5032018;28;19909;-84
2020/12/09 08:43:55;;;;;;;71.30;28.80;;;;;;;;;;5030754;28;20122;-83
2020/12/09 08:46:23;;;;;;;77.40;27.47;;;;;;;;;;5028614;28;20029;-84
2020/12/09 08:48:49;;;;;;;125.27;30.93;;;;;;;;;;5027661;28;20096;-84
2020/12/09 08:51:15;;;;;;;46.10;13.90;;;;;;;;;;5032058;28;20043;-85
2020/12/09 08:53:41;;;;;;;63.53;20.67;;;;;;;;;;5034910;28;20029;-85
2020/12/09 08:56:07;;;;;;;56.53;21.07;;;;;;;;;;5035516;28;20029;-85
2020/12/09 08:58:34;;;;;;;62.07;29.50;;;;;;;;;;5028853;28;20185;-83
2020/12/09 09:01:00;;;;;;;77.43;25.13;;;;;;;;;;5034464;28;20022;-85
2020/12/09 09:03:27;;;;;;;122.83;30.07;;;;;;;;;;5033694;28;20035;-84
2020/12/09 09:05:54;;;;;;;96.37;31.13;;;;;;;;;;5031447;28;20041;-83
2020/12/09 09:08:20;;;;;;;110.60;28.97;;;;;;;;;;5048621;28;20037;-83
2020/12/09 09:10:47;;;;;;;125.30;31.73;;;;;;;;;;5048955;28;20123;-84
2020/12/09 09:13:13;;;;;;;94.77;25.30;;;;;;;;;;5034464;28;20021;-85
2020/12/09 09:15:39;;;;;;;52.87;18.10;;;;;;;;;;5034802;28;20032;-84
2020/12/09 09:18:06;;;;;;;72.20;26.30;;;;;;;;;;5033952;28;20053;-85
2020/12/09 09:20:32;;;;;;;50.50;17.90;;;;;;;;;;5036342;28;20040;-85
2020/12/09 09:22:59;;;;;;;52.23;28.30;;;;;;;;;;5038472;28;20041;-85
2020/12/09 09:25:25;;;;;;;42.77;25.40;;;;;;;;;;5038724;28;20001;-85
2020/12/09 09:27:52;;;;;;;48.43;28.23;;;;;;;;;;5055440;28;20060;-85
2020/12/09 09:30:19;;;;;;;55.00;23.93;;;;;;;;;;5036426;28;20036;-85
2020/12/09 09:32:45;;;;;;;105.07;29.87;;;;;;;;;;5051031;28;20028;-84
2020/12/09 09:35:11;;;;;;;55.00;24.47;;;;;;;;;;5037658;28;20082;-85
2020/12/09 09:37:37;;;;;;;41.97;14.63;;;;;;;;;;5038413;28;20131;-85
2020/12/09 09:40:04;;;;;;;56.50;25.27;;;;;;;;;;5055345;28;20025;-85
2020/12/09 09:42:33;;;;;;;47.80;26.07;;;;;;;;;;5038320;28;20049;-82
2020/12/09 09:45:01;;;;;;;35.90;16.30;;;;;;;;;;5038081;28;20009;-82
2020/12/09 09:47:27;;;;;;;55.90;23.40;;;;;;;;;;5036742;28;20049;-83
2020/12/09 09:49:53;;;;;;;52.53;24.97;;;;;;;;;;5037902;28;20017;-84
2020/12/09 09:52:20;;;;;;;27.90;15.60;;;;;;;;;;5055491;28;20041;-84
2020/12/09 09:54:46;;;;;;;37.27;14.57;;;;;;;;;;5038015;28;20056;-83
2020/12/09 09:57:12;;;;;;;39.70;20.70;;;;;;;;;;5038060;28;20114;-83
2020/12/09 09:59:38;;;;;;;39.70;17.20;;;;;;;;;;5055606;28;20093;-83
2020/12/09 10:02:04;;;;;;;25.70;10.83;;;;;;;;;;5054978;28;20026;-85
2020/12/09 10:04:30;;;;;;;30.87;9.87;;;;;;;;;;5034379;28;20032;-83
2020/12/09 10:06:57;;;;;;;57.27;20.40;;;;;;;;;;5033291;28;20358;-84
2020/12/09 10:09:23;;;;;;;47.20;20.00;;;;;;;;;;5053217;28;20029;-83
2020/12/09 10:11:49;;;;;;;53.20;23.87;;;;;;;;;;5054966;28;20040;-84
2020/12/09 10:14:15;;;;;;;44.30;22.20;;;;;;;;;;5055064;28;20030;-83
2020/12/09 10:16:46;;;;;;;37.63;20.63;;;;;;;;;;5052953;28;20067;-85
2020/12/09 10:19:12;;;;;;;45.33;24.93;;;;;;;;;;5033859;28;20057;-83
2020/12/09 10:21:38;;;;;;;58.70;25.50;;;;;;;;;;5033544;28;20033;-84
2020/12/09 10:24:05;;;;;;;44.17;23.40;;;;;;;;;;5033562;28;20032;-84
2020/12/09 10:26:32;;;;;;;20.60;10.47;;;;;;;;;;5037327;28;20049;-86
2020/12/09 10:29:01;;;;;;;37.47;17.33;;;;;;;;;;5036003;28;20025;-85
2020/12/09 10:31:47;;;;;;;42.07;22.73;;;;;;;;;;5052991;28;20028;-83
2020/12/09 10:34:14;;;;;;;66.33;26.17;;;;;;;;;;5035799;28;20048;-83
2020/12/09 10:36:44;;;;;;;50.63;26.13;;;;;;;;;;5052792;28;20029;-84
2020/12/09 10:39:10;;;;;;;49.27;27.13;;;;;;;;;;5040685;28;20033;-84
2020/12/09 10:41:40;;;;;;;57.20;22.70;;;;;;;;;;5038236;28;20032;-83
2020/12/09 10:44:06;;;;;;;55.80;27.77;;;;;;;;;;5035590;28;20025;-83
2020/12/09 10:46:33;;;;;;;63.67;31.97;;;;;;;;;;5036962;28;20089;-84
2020/12/09 10:48:59;;;;;;;57.10;29.20;;;;;;;;;;5054686;28;20104;-84
2020/12/09 10:51:29;;;;;;;74.07;33.70;;;;;;;;;;5052404;28;20028;-83
2020/12/09 10:53:55;;;;;;;50.07;28.70;;;;;;;;;;5050281;28;20037;-83
2020/12/09 10:56:25;;;;;;;54.97;30.37;;;;;;;;;;5054750;28;20025;-84
2020/12/09 10:58:51;;;;;;;55.50;28.47;;;;;;;;;;5038622;28;20030;-83
2020/12/09 11:01:21;;;;;;;22.63;9.87;;;;;;;;;;5036958;28;20092;-84
2020/12/09 11:03:47;;;;;;;53.37;29.47;;;;;;;;;;5051311;28;20021;-84
2020/12/09 11:06:14;;;;;;;48.00;22.83;;;;;;;;;;5036901;28;20052;-84
2020/12/09 11:08:40;;;;;;;42.00;20.67;;;;;;;;;;5039014;28;20032;-84
2020/12/09 11:11:06;;;;;;;49.63;23.57;;;;;;;;;;5035694;28;20022;-84
2020/12/09 11:13:32;;;;;;;50.77;25.90;;;;;;;;;;5035626;28;20026;-81
2020/12/09 11:15:58;;;;;;;46.90;25.40;;;;;;;;;;5029737;28;20124;-83
2020/12/09 11:18:24;;;;;;;48.63;24.33;;;;;;;;;;5048767;28;20049;-83
2020/12/09 11:20:50;;;;;;;46.03;24.23;;;;;;;;;;5029900;28;20045;-83
2020/12/09 11:23:17;;;;;;;39.53;21.30;;;;;;;;;;5050036;28;20093;-82
2020/12/09 11:25:43;;;;;;;53.93;27.17;;;;;;;;;;5031457;28;20025;-83
2020/12/09 11:28:09;;;;;;;45.27;25.20;;;;;;;;;;5031700;28;20093;-83
2020/12/09 11:30:35;;;;;;;52.77;26.63;;;;;;;;;;5031034;28;20089;-82
2020/12/09 11:33:01;;;;;;;40.03;16.87;;;;;;;;;;5047534;28;20049;-83
2020/12/09 11:35:27;;;;;;;34.47;15.70;;;;;;;;;;5033195;28;20032;-82
2020/12/09 11:37:55;;;;;;;46.20;22.73;;;;;;;;;;5036000;28;20045;-85
2020/12/09 11:40:25;;;;;;;49.77;25.43;;;;;;;;;;5037221;28;20061;-85
2020/12/09 11:42:51;;;;;;;36.60;17.67;;;;;;;;;;5035934;28;20064;-84
2020/12/09 11:45:17;;;;;;;37.83;16.63;;;;;;;;;;5037373;28;20036;-84
2020/12/09 11:47:43;;;;;;;38.67;17.70;;;;;;;;;;5053531;28;20125;-85
2020/12/09 11:50:09;;;;;;;33.33;15.40;;;;;;;;;;5035839;28;20084;-83
2020/12/09 11:52:35;;;;;;;52.77;27.33;;;;;;;;;;5032166;28;20096;-83
2020/12/09 11:55:02;;;;;;;55.30;22.27;;;;;;;;;;5033100;28;20116;-83
2020/12/09 11:57:28;;;;;;;64.43;31.60;;;;;;;;;;5050032;28;20025;-83
2020/12/09 11:59:54;;;;;;;63.23;30.43;;;;;;;;;;5049003;28;20029;-82
2020/12/09 12:02:20;;;;;;;29.40;13.70;;;;;;;;;;5030112;28;20097;-83
2020/12/09 12:04:48;;;;;;;34.10;13.47;;;;;;;;;;5031771;28;20093;-84
2020/12/09 12:07:14;;;;;;;53.60;22.27;;;;;;;;;;5032155;28;20025;-86
2020/12/09 12:09:42;;;;;;;48.13;20.43;;;;;;;;;;5031155;28;20036;-83
2020/12/09 12:12:09;;;;;;;46.10;20.10;;;;;;;;;;5049424;28;20025;-84
2020/12/09 12:14:35;;;;;;;69.17;28.30;;;;;;;;;;5030126;28;20044;-84
2020/12/09 12:17:03;;;;;;;69.70;32.57;;;;;;;;;;5028035;28;20029;-83
2020/12/09 12:19:33;;;;;;;68.40;34.03;;;;;;;;;;5029854;28;20041;-85
2020/12/09 12:21:59;;;;;;;21.00;10.33;;;;;;;;;;5030660;28;20045;-86
2020/12/09 12:24:25;;;;;;;73.73;29.90;;;;;;;;;;5031722;28;20029;-83
2020/12/09 12:26:51;;;;;;;81.40;36.40;;;;;;;;;;5029591;28;20032;-83
2020/12/09 12:29:17;;;;;;;82.97;35.60;;;;;;;;;;5048618;28;20081;-84
2020/12/09 12:31:43;;;;;;;85.37;38.43;;;;;;;;;;5029577;28;20397;-84
2020/12/09 12:34:10;;;;;;;83.53;40.23;;;;;;;;;;5026557;28;20037;-83
2020/12/09 12:36:36;;;;;;;51.20;22.47;;;;;;;;;;5026262;28;20021;-84
2020/12/09 12:39:02;;;;;;;71.03;26.67;;;;;;;;;;5026904;28;20045;-85
2020/12/09 12:41:28;;;;;;;80.10;37.83;;;;;;;;;;5029224;28;20032;-84
2020/12/09 12:43:54;;;;;;;51.53;25.13;;;;;;;;;;5050970;28;20059;-85
2020/12/09 12:46:20;;;;;;;74.60;32.60;;;;;;;;;;5050130;28;20030;-83
2020/12/09 12:48:46;;;;;;;67.87;31.00;;;;;;;;;;5050627;28;20053;-85
2020/12/09 12:51:19;;;;;;;75.23;29.77;;;;;;;;;;5034584;28;20033;-83
2020/12/09 12:53:45;;;;;;;63.70;24.87;;;;;;;;;;5053826;28;20014;-85
2020/12/09 12:56:15;;;;;;;36.90;15.13;;;;;;;;;;5052891;28;20006;-84
2020/12/09 12:58:41;;;;;;;72.00;31.00;;;;;;;;;;5034419;28;20029;-85
2020/12/09 13:01:08;;;;;;;68.40;30.63;;;;;;;;;;5032242;28;20021;-84
2020/12/09 13:03:34;;;;;;;69.33;31.30;;;;;;;;;;5028879;28;20022;-83
2020/12/09 13:06:01;;;;;;;60.73;25.87;;;;;;;;;;5049165;28;20036;-85
2020/12/09 13:08:27;;;;;;;77.50;30.70;;;;;;;;;;5028506;28;20464;-84
2020/12/09 13:10:53;;;;;;;42.60;18.30;;;;;;;;;;5029677;28;20032;-83
2020/12/09 13:13:19;;;;;;;43.47;20.73;;;;;;;;;;5033337;28;20118;-83
2020/12/09 13:15:46;;;;;;;57.97;25.73;;;;;;;;;;5051619;28;20048;-84
2020/12/09 13:18:12;;;;;;;69.30;31.93;;;;;;;;;;5031054;28;20025;-84
2020/12/09 13:20:38;;;;;;;52.57;26.70;;;;;;;;;;5050666;28;20049;-86
2020/12/09 13:23:04;;;;;;;79.07;31.77;;;;;;;;;;5052070;28;20021;-85
2020/12/09 13:25:31;;;;;;;79.83;33.47;;;;;;;;;;5038042;28;20033;-85
2020/12/09 13:27:57;;;;;;;76.43;35.70;;;;;;;;;;5039027;28;20009;-85
2020/12/09 13:30:24;;;;;;;74.33;30.53;;;;;;;;;;5039695;28;20020;-85
2020/12/09 13:32:50;;;;;;;82.10;38.17;;;;;;;;;;5036886;28;20033;-83
2020/12/09 13:35:16;;;;;;;83.07;36.67;;;;;;;;;;5032114;28;20028;-85
2020/12/09 13:37:42;;;;;;;77.80;32.03;;;;;;;;;;5034438;28;20026;-86
2020/12/09 13:40:09;;;;;;;72.60;34.53;;;;;;;;;;5034770;28;20041;-84
2020/12/09 13:42:35;;;;;;;81.87;33.80;;;;;;;;;;5035429;28;20029;-85
2020/12/09 13:45:01;;;;;;;75.97;37.07;;;;;;;;;;5042896;28;20060;-84
2020/12/09 13:47:27;;;;;;;62.43;28.20;;;;;;;;;;5058903;28;20045;-85
2020/12/09 13:49:53;;;;;;;75.00;34.57;;;;;;;;;;5042496;28;20052;-84
2020/12/09 13:52:19;;;;;;;77.10;38.97;;;;;;;;;;5039081;28;20373;-83
2020/12/09 13:54:45;;;;;;;74.70;35.80;;;;;;;;;;5033898;28;20022;-84
2020/12/09 13:57:12;;;;;;;69.47;32.13;;;;;;;;;;5036948;28;20021;-84
2020/12/09 13:59:38;;;;;;;71.37;36.33;;;;;;;;;;5038679;28;20120;-83
2020/12/09 14:02:04;;;;;;;56.13;25.60;;;;;;;;;;5054755;28;20085;-84
2020/12/09 14:04:30;;;;;;;41.47;17.70;;;;;;;;;;5038209;28;20040;-83
2020/12/09 14:06:59;;;;;;;58.87;26.63;;;;;;;;;;5039880;28;20048;-83
2020/12/09 14:09:26;;;;;;;47.07;20.17;;;;;;;;;;5040393;28;20030;-85
2020/12/09 14:11:52;;;;;;;20.70;9.80;;;;;;;;;;5038936;28;20067;-86
2020/12/09 14:14:18;;;;;;;57.10;26.00;;;;;;;;;;5038014;28;20527;-84
2020/12/09 14:16:45;;;;;;;52.07;21.90;;;;;;;;;;5054391;28;20120;-83
2020/12/09 14:19:21;;;;;;;58.90;27.50;;;;;;;;;;5054020;28;20034;-84
2020/12/09 14:21:48;;;;;;;53.70;24.50;;;;;;;;;;5038720;28;20032;-85